createdAt,value
2022-11-09T00:00:50.910Z,1.60
2022-11-09T00:03:18.996Z,1.13
2022-11-09T00:05:56.236Z,1.85
2022-11-09T00:08:25.555Z,1.65
2022-11-09T00:10:53.424Z,1.17
2022-11-09T00:13:21.446Z,1.70
2022-11-09T00:15:49.806Z,2.03
2022-11-09T00:18:17.658Z,1.10
2022-11-09T00:20:47.940Z,2.38
2022-11-09T00:23:17.212Z,2.67
2022-11-09T00:25:47.505Z,2.33
2022-11-09T00:28:15.489Z,1.75
2022-11-09T00:30:44.554Z,1.35
2022-11-09T00:33:12.345Z,1.45
2022-11-09T00:35:40.557Z,1.58
2022-11-09T00:38:08.390Z,1.52
2022-11-09T00:40:36.239Z,1.83
2022-11-09T00:43:05.304Z,2.05
2022-11-09T00:45:33.077Z,1.35
2022-11-09T00:48:00.749Z,2.22
2022-11-09T00:50:28.546Z,1.90
2022-11-09T00:52:56.263Z,1.65
2022-11-09T00:55:24.472Z,1.63
2022-11-09T00:57:52.820Z,2.20
2022-11-09T01:00:24.255Z,1.77
2022-11-09T01:02:52.177Z,1.67
2022-11-09T01:05:20.361Z,1.30
2022-11-09T01:07:48.069Z,1.48
2022-11-09T01:10:15.736Z,1.70
2022-11-09T01:12:43.482Z,2.17
2022-11-09T01:15:11.513Z,1.70
2022-11-09T01:17:40.673Z,1.65
2022-11-09T01:20:09.129Z,1.65
2022-11-09T01:22:36.949Z,1.35
2022-11-09T01:25:04.981Z,1.83
2022-11-09T01:27:33.879Z,1.33
2022-11-09T01:30:01.576Z,1.35
2022-11-09T01:32:32.900Z,1.17
2022-11-09T01:35:02.023Z,2.38
2022-11-09T01:37:29.769Z,0.98
2022-11-09T01:39:57.498Z,0.82
2022-11-09T01:42:26.569Z,1.77
2022-11-09T01:45:22.563Z,0.88
2022-11-09T01:47:56.350Z,1.15
2022-11-09T01:50:33.144Z,0.98
2022-11-09T01:53:03.493Z,1.33
2022-11-09T01:55:31.826Z,1.55
2022-11-09T01:58:02.950Z,1.50
2022-11-09T02:00:32.878Z,1.08
2022-11-09T02:03:06.213Z,1.15
2022-11-09T02:05:36.997Z,1.23
2022-11-09T02:08:07.800Z,0.95
2022-11-09T02:10:41.760Z,1.02
2022-11-09T02:13:11.881Z,1.23
2022-11-09T02:15:45.247Z,1.02
2022-11-09T02:18:13.729Z,0.77
2022-11-09T02:20:48.369Z,1.35
2022-11-09T02:23:16.498Z,1.17
2022-11-09T02:25:47.908Z,1.02
2022-11-09T02:28:17.421Z,1.35
2022-11-09T02:30:48.432Z,1.23
2022-11-09T02:33:16.326Z,1.13
2022-11-09T02:35:44.581Z,1.30
2022-11-09T02:38:15.316Z,1.55
2022-11-09T02:40:46.862Z,1.63
2022-11-09T02:43:16.117Z,2.05
2022-11-09T02:45:43.923Z,1.05
2022-11-09T02:48:11.628Z,1.10
2022-11-09T02:50:39.426Z,1.33
2022-11-09T02:53:07.223Z,1.63
2022-11-09T02:55:36.281Z,1.73
2022-11-09T02:58:04.014Z,1.42
2022-11-09T03:00:31.681Z,1.33
2022-11-09T03:02:59.524Z,1.33
2022-11-09T03:05:27.228Z,1.35
2022-11-09T03:07:55.025Z,1.10
2022-11-09T03:10:22.715Z,1.60
2022-11-09T03:12:51.786Z,1.05
2022-11-09T03:15:19.603Z,2.05
2022-11-09T03:17:47.789Z,1.10
2022-11-09T03:20:15.629Z,1.70
2022-11-09T03:22:43.313Z,1.02
2022-11-09T03:25:11.277Z,1.05
2022-11-09T03:27:38.989Z,1.20
2022-11-09T03:30:10.354Z,1.23
2022-11-09T03:32:38.111Z,1.27
2022-11-09T03:35:06.521Z,1.10
2022-11-09T03:37:34.344Z,1.63
2022-11-09T03:40:02.057Z,1.50
2022-11-09T03:42:29.724Z,1.30
2022-11-09T03:44:57.431Z,1.52
2022-11-09T03:47:26.600Z,1.17
2022-11-09T03:49:54.281Z,1.48
2022-11-09T03:52:22.687Z,1.30
2022-11-09T03:54:50.448Z,0.70
2022-11-09T03:57:18.148Z,1.67
2022-11-09T03:59:45.893Z,1.10
2022-11-09T04:02:13.627Z,1.15
2022-11-09T04:04:42.677Z,1.08
2022-11-09T04:07:11.547Z,1.17
2022-11-09T04:09:39.300Z,0.60
2022-11-09T04:12:07.057Z,1.40
2022-11-09T04:14:34.785Z,0.82
2022-11-09T04:17:02.477Z,1.00
2022-11-09T04:19:30.198Z,1.98
2022-11-09T04:21:59.257Z,1.60
2022-11-09T04:24:26.931Z,1.65
2022-11-09T04:26:54.666Z,1.13
2022-11-09T04:29:22.399Z,0.90
2022-11-09T04:31:50.649Z,1.92
2022-11-09T04:34:18.908Z,1.15
2022-11-09T04:36:46.678Z,1.65
2022-11-09T04:39:16.041Z,1.25
2022-11-09T04:41:43.734Z,1.42
2022-11-09T04:44:11.511Z,1.23
2022-11-09T04:46:39.253Z,1.50
2022-11-09T04:49:06.933Z,1.40
2022-11-09T04:51:34.727Z,0.82
2022-11-09T04:54:02.535Z,1.50
2022-11-09T04:56:31.623Z,1.27
2022-11-09T04:58:59.375Z,2.38
2022-11-09T05:01:27.085Z,1.58
2022-11-09T05:03:54.929Z,1.20
2022-11-09T05:06:34.696Z,1.15
2022-11-09T05:09:03.858Z,1.08
2022-11-09T05:11:34.134Z,1.23
2022-11-09T05:14:02.751Z,1.25
2022-11-09T05:16:30.856Z,1.10
2022-11-09T05:18:58.532Z,1.98
2022-11-09T05:21:26.266Z,1.73
2022-11-09T05:23:58.921Z,1.70
2022-11-09T05:26:33.076Z,1.08
2022-11-09T05:29:01.563Z,1.00
2022-11-09T05:31:29.786Z,2.28
2022-11-09T05:33:59.334Z,1.20
2022-11-09T05:36:28.289Z,1.63
2022-11-09T05:38:56.551Z,2.30
2022-11-09T05:41:24.557Z,1.42
2022-11-09T05:43:53.819Z,1.75
2022-11-09T05:46:21.506Z,0.90
2022-11-09T05:48:49.361Z,1.85
2022-11-09T05:51:17.251Z,1.35
2022-11-09T05:53:46.771Z,2.35
2022-11-09T05:56:15.787Z,1.50
2022-11-09T05:58:44.237Z,1.20
2022-11-09T06:01:15.417Z,1.48
2022-11-09T06:03:44.212Z,2.17
2022-11-09T06:06:14.577Z,1.00
2022-11-09T06:08:42.592Z,1.27
2022-11-09T06:11:11.945Z,1.95
2022-11-09T06:13:39.745Z,2.75
2022-11-09T06:16:08.326Z,1.17
2022-11-09T06:18:37.940Z,1.55
2022-11-09T06:21:07.036Z,1.40
2022-11-09T06:23:34.949Z,1.33
2022-11-09T06:26:06.319Z,1.77
2022-11-09T06:28:34.717Z,1.98
2022-11-09T06:31:03.768Z,2.15
2022-11-09T06:33:32.946Z,1.83
2022-11-09T06:36:02.363Z,1.10
2022-11-09T06:38:30.384Z,1.60
2022-11-09T06:41:00.470Z,0.93
2022-11-09T06:43:28.834Z,1.02
2022-11-09T06:45:56.772Z,1.13
2022-11-09T06:48:24.673Z,1.92
2022-11-09T06:50:52.374Z,1.48
2022-11-09T06:53:22.014Z,1.40
2022-11-09T06:55:51.000Z,1.15
2022-11-09T06:58:20.783Z,1.20
2022-11-09T07:00:48.620Z,1.58
2022-11-09T07:03:17.159Z,1.52
2022-11-09T07:05:45.433Z,1.75
2022-11-09T07:08:13.501Z,1.25
2022-11-09T07:10:43.012Z,1.60
2022-11-09T07:13:11.501Z,1.00
2022-11-09T07:15:39.883Z,1.02
2022-11-09T07:18:09.468Z,0.88
2022-11-09T07:20:38.952Z,2.35
2022-11-09T07:23:06.717Z,1.63
2022-11-09T07:25:34.991Z,1.65
2022-11-09T07:28:09.481Z,1.92
2022-11-09T07:30:37.977Z,1.40
2022-11-09T07:33:12.480Z,1.15
2022-11-09T07:35:40.248Z,1.00
2022-11-09T07:38:08.393Z,1.42
2022-11-09T07:40:36.641Z,1.80
2022-11-09T07:43:06.398Z,1.02
2022-11-09T07:45:36.728Z,0.82
2022-11-09T07:48:07.060Z,1.77
2022-11-09T07:50:35.867Z,1.55
2022-11-09T07:53:05.494Z,1.25
2022-11-09T07:55:33.277Z,1.45
2022-11-09T07:58:03.282Z,0.93
2022-11-09T08:00:33.385Z,1.35
2022-11-09T08:03:03.017Z,1.60
2022-11-09T08:05:31.088Z,1.48
2022-11-09T08:08:00.091Z,0.90
2022-11-09T08:10:29.250Z,1.13
2022-11-09T08:12:58.150Z,1.15
2022-11-09T08:15:26.813Z,1.80
2022-11-09T08:17:54.616Z,2.92
2022-11-09T08:20:23.704Z,1.63
2022-11-09T08:22:51.377Z,1.00
2022-11-09T08:25:19.160Z,1.27
2022-11-09T08:27:47.115Z,0.93
2022-11-09T08:30:17.378Z,2.40
2022-11-09T08:32:45.676Z,1.00
2022-11-09T08:35:17.646Z,1.75
2022-11-09T08:37:47.882Z,1.38
2022-11-09T08:40:18.282Z,1.67
2022-11-09T08:42:46.394Z,1.08
2022-11-09T08:45:14.933Z,1.00
2022-11-09T08:47:42.937Z,2.08
2022-11-09T08:50:12.071Z,1.13
2022-11-09T08:52:40.842Z,0.95
2022-11-09T08:55:10.676Z,0.98
2022-11-09T08:57:38.424Z,1.92
2022-11-09T09:00:07.729Z,1.50
2022-11-09T09:02:35.610Z,1.35
2022-11-09T09:05:03.291Z,0.90
2022-11-09T09:07:31.068Z,1.02
2022-11-09T09:09:58.783Z,1.10
2022-11-09T09:12:27.908Z,1.55
2022-11-09T09:14:55.620Z,1.00
2022-11-09T09:17:23.371Z,0.82
2022-11-09T09:19:51.068Z,1.58
2022-11-09T09:22:19.720Z,1.13
2022-11-09T09:24:47.541Z,0.80
2022-11-09T09:27:15.556Z,1.10
2022-11-09T09:29:44.716Z,1.40
2022-11-09T09:32:12.462Z,1.52
2022-11-09T09:34:40.144Z,1.52
2022-11-09T09:37:08.062Z,1.00
2022-11-09T09:39:35.810Z,1.27
2022-11-09T09:42:07.445Z,0.55
2022-11-09T09:44:41.736Z,1.38
2022-11-09T09:47:14.316Z,0.88
2022-11-09T09:49:45.873Z,1.55
2022-11-09T09:52:21.440Z,1.10
2022-11-09T09:54:55.736Z,1.65
2022-11-09T09:57:24.361Z,1.00
2022-11-09T09:59:53.998Z,1.35
2022-11-09T10:02:25.705Z,1.55
2022-11-09T10:04:56.228Z,0.85
2022-11-09T10:07:29.596Z,1.15
2022-11-09T10:10:17.521Z,4.40
2022-11-09T10:13:06.792Z,2.22
2022-11-09T10:15:42.012Z,2.72
2022-11-09T10:18:28.268Z,1.35
2022-11-09T10:21:15.937Z,0.95
2022-11-09T10:23:56.211Z,1.50
2022-11-09T10:26:28.571Z,1.35
2022-11-09T10:29:15.562Z,1.33
2022-11-09T10:31:46.924Z,1.98
2022-11-09T10:34:19.809Z,3.78
2022-11-09T10:36:55.749Z,3.40
2022-11-09T10:39:26.057Z,2.25
2022-11-09T10:41:53.842Z,2.03
2022-11-09T10:44:21.645Z,3.65
2022-11-09T10:47:08.012Z,4.53
2022-11-09T10:49:38.119Z,2.50
2022-11-09T10:52:06.914Z,1.08
2022-11-09T10:54:37.840Z,1.98
2022-11-09T10:57:15.748Z,1.90
2022-11-09T10:59:50.589Z,1.40
2022-11-09T11:02:41.710Z,1.45
2022-11-09T11:05:35.839Z,0.98
2022-11-09T11:08:23.480Z,1.63
2022-11-09T11:11:02.136Z,2.65
2022-11-09T11:13:34.649Z,1.48
2022-11-09T11:16:02.524Z,0.88
2022-11-09T11:18:32.844Z,1.42
2022-11-09T11:21:19.019Z,1.42
2022-11-09T11:24:09.804Z,1.15
2022-11-09T11:26:41.662Z,1.00
2022-11-09T11:29:25.635Z,0.90
2022-11-09T11:31:53.476Z,1.38
2022-11-09T11:34:45.676Z,1.08
2022-11-09T11:37:24.213Z,1.70
2022-11-09T11:40:01.059Z,0.60
2022-11-09T11:42:54.684Z,0.73
2022-11-09T11:45:41.642Z,0.88
2022-11-09T11:48:28.811Z,1.10
2022-11-09T11:51:04.538Z,0.93
2022-11-09T11:53:49.165Z,0.63
2022-11-09T11:56:24.142Z,0.63
2022-11-09T11:59:30.280Z,0.80
2022-11-09T12:02:22.489Z,0.93
2022-11-09T12:05:26.117Z,1.50
2022-11-09T12:08:02.440Z,1.83
2022-11-09T12:10:45.832Z,1.40
2022-11-09T12:13:36.112Z,0.93
2022-11-09T12:16:09.203Z,1.35
2022-11-09T12:18:48.744Z,1.15
2022-11-09T12:21:18.599Z,0.80
2022-11-09T12:24:11.441Z,0.98
2022-11-09T12:27:17.974Z,1.27
2022-11-09T12:32:25.963Z,0.95
2022-11-09T12:34:59.290Z,0.70
2022-11-09T12:40:05.310Z,1.58
2022-11-09T12:42:38.428Z,1.98
2022-11-09T12:45:19.662Z,1.75
2022-11-09T12:47:47.362Z,2.60
2022-11-09T12:50:18.151Z,4.30
2022-11-09T12:52:48.404Z,3.28
2022-11-09T12:55:19.531Z,5.50
2022-11-09T12:57:49.546Z,6.00
2022-11-09T13:00:49.834Z,2.08
2022-11-09T13:03:24.010Z,1.50
2022-11-09T13:06:16.465Z,1.85
2022-11-09T13:08:56.593Z,1.52
2022-11-09T13:11:35.769Z,0.95
2022-11-09T13:14:34.412Z,1.15
2022-11-09T13:17:23.187Z,0.80
2022-11-09T13:19:54.222Z,1.13
2022-11-09T13:23:00.768Z,1.65
2022-11-09T13:25:48.160Z,1.00
2022-11-09T13:28:44.060Z,1.35
2022-11-09T13:31:13.614Z,1.58
2022-11-09T13:33:42.237Z,1.92
2022-11-09T13:36:20.120Z,2.05
2022-11-09T13:39:08.949Z,1.80
2022-11-09T13:41:44.725Z,0.82
2022-11-09T13:44:34.206Z,0.82
2022-11-09T13:47:06.798Z,0.90
2022-11-09T13:49:55.354Z,1.10
2022-11-09T13:52:48.784Z,0.95
2022-11-09T13:55:27.084Z,1.33
2022-11-09T13:57:56.749Z,1.10
2022-11-09T14:00:26.734Z,0.65
2022-11-09T14:02:58.534Z,0.90
2022-11-09T14:05:29.039Z,1.70
2022-11-09T14:07:57.005Z,0.73
2022-11-09T14:10:37.423Z,0.65
2022-11-09T14:13:16.075Z,1.10
2022-11-09T14:15:50.704Z,0.80
2022-11-09T14:18:30.202Z,0.85
2022-11-09T14:21:16.271Z,1.02
2022-11-09T14:23:44.372Z,0.70
2022-11-09T14:26:24.184Z,0.82
2022-11-09T14:28:52.177Z,1.83
2022-11-09T14:31:28.317Z,2.53
2022-11-09T14:34:05.873Z,3.15
2022-11-09T14:36:36.262Z,3.08
2022-11-09T14:39:07.384Z,2.95
2022-11-09T14:41:36.230Z,1.70
2022-11-09T14:44:04.028Z,1.42
2022-11-09T14:46:32.789Z,1.83
2022-11-09T14:49:04.108Z,1.80
2022-11-09T14:51:34.865Z,0.90
2022-11-09T14:54:03.617Z,1.02
2022-11-09T14:56:33.845Z,0.95
2022-11-09T14:59:05.444Z,0.55
2022-11-09T15:01:33.155Z,0.73
2022-11-09T15:04:11.011Z,1.00
2022-11-09T15:06:47.324Z,1.20
2022-11-09T15:09:20.334Z,0.93
2022-11-09T15:11:48.658Z,1.00
2022-11-09T15:14:26.343Z,1.27
2022-11-09T15:17:00.172Z,0.75
2022-11-09T15:19:32.326Z,1.38
2022-11-09T15:22:01.724Z,1.05
2022-11-09T15:24:30.792Z,0.43
2022-11-09T15:26:58.775Z,0.70
2022-11-09T15:29:36.429Z,0.75
2022-11-09T15:32:14.954Z,1.00
2022-11-09T15:34:53.569Z,1.17
2022-11-09T15:37:25.058Z,1.90
2022-11-09T15:39:53.353Z,0.90
2022-11-09T15:42:21.958Z,2.42
2022-11-09T15:44:53.329Z,0.90
2022-11-09T15:47:25.099Z,1.05
2022-11-09T15:49:54.229Z,1.10
2022-11-09T15:52:21.933Z,1.23
2022-11-09T15:54:49.751Z,0.82
2022-11-09T15:57:19.457Z,1.50
2022-11-09T15:59:48.135Z,0.90
2022-11-09T16:02:18.864Z,0.60
2022-11-09T16:04:46.700Z,0.68
2022-11-09T16:07:17.175Z,1.05
2022-11-09T16:09:44.944Z,1.15
2022-11-09T16:12:12.652Z,1.00
2022-11-09T16:14:41.308Z,0.73
2022-11-09T16:17:09.072Z,0.73
2022-11-09T16:19:37.009Z,0.60
2022-11-09T16:22:05.176Z,1.15
2022-11-09T16:24:34.192Z,0.57
2022-11-09T16:27:03.258Z,1.20
2022-11-09T16:29:35.154Z,1.40
2022-11-09T16:32:02.848Z,1.10
2022-11-09T16:34:30.613Z,0.77
2022-11-09T16:36:59.405Z,0.82
2022-11-09T16:39:27.371Z,1.10
2022-11-09T16:41:56.628Z,0.93
2022-11-09T16:44:25.213Z,0.90
2022-11-09T16:46:53.133Z,0.93
2022-11-09T16:49:20.833Z,1.33
2022-11-09T16:51:48.596Z,1.65
2022-11-09T16:54:16.369Z,1.13
2022-11-09T16:56:44.298Z,1.10
2022-11-09T16:59:13.485Z,1.02
2022-11-09T17:01:41.386Z,0.85
2022-11-09T17:04:09.534Z,0.75
2022-11-09T17:06:37.369Z,1.50
2022-11-09T17:09:05.288Z,1.47
2022-11-09T17:11:33.500Z,1.13
2022-11-09T17:14:01.437Z,0.80
2022-11-09T17:16:30.593Z,1.73
2022-11-09T17:18:58.876Z,0.60
2022-11-09T17:21:28.351Z,1.80
2022-11-09T17:23:57.544Z,0.73
2022-11-09T17:26:26.282Z,1.30
2022-11-09T17:28:54.023Z,0.60
2022-11-09T17:31:24.083Z,0.82
2022-11-09T17:33:57.064Z,1.02
2022-11-09T17:36:49.200Z,1.00
2022-11-09T17:39:16.268Z,1.08
2022-11-09T17:41:44.157Z,1.75
2022-11-09T17:44:11.860Z,1.10
2022-11-09T17:46:39.592Z,1.33
2022-11-09T17:49:10.360Z,1.42
2022-11-09T17:51:38.411Z,0.93
2022-11-09T17:54:06.494Z,1.83
2022-11-09T17:56:34.886Z,1.10
2022-11-09T17:59:04.920Z,1.35
2022-11-09T18:01:36.565Z,1.40
2022-11-09T18:04:10.815Z,1.88
2022-11-09T18:06:39.396Z,1.65
2022-11-09T18:11:54.997Z,45.22
2022-11-09T18:14:22.732Z,61.85
2022-11-09T18:16:50.424Z,54.20
2022-11-09T18:19:19.541Z,26.77
2022-11-09T18:21:47.357Z,12.70
2022-11-09T18:24:15.150Z,6.55
2022-11-09T18:26:43.066Z,3.90
2022-11-09T18:29:10.773Z,3.17
2022-11-09T18:31:38.520Z,2.15
2022-11-09T18:34:06.189Z,2.05
2022-11-09T18:36:35.345Z,2.75
2022-11-09T18:39:03.378Z,2.20
2022-11-09T18:41:31.265Z,2.20
2022-11-09T18:43:59.210Z,2.38
2022-11-09T18:46:30.599Z,1.88
2022-11-09T18:48:58.305Z,2.53
2022-11-09T18:51:26.129Z,2.00
2022-11-09T18:53:55.175Z,2.67
2022-11-09T18:56:24.847Z,2.28
2022-11-09T18:58:54.357Z,2.03
2022-11-09T19:01:24.029Z,1.50
2022-11-09T19:03:57.799Z,1.88
2022-11-09T19:06:27.014Z,2.25
2022-11-09T19:09:13.627Z,2.30
2022-11-09T19:11:41.764Z,2.70
2022-11-09T19:14:10.036Z,3.17
2022-11-09T19:16:37.918Z,2.35
2022-11-09T19:19:05.703Z,2.33
2022-11-09T19:21:39.970Z,2.42
2022-11-09T19:24:12.904Z,3.03
2022-11-09T19:26:40.645Z,4.07
2022-11-09T19:29:09.506Z,3.58
2022-11-09T19:31:38.343Z,4.07
2022-11-09T19:34:06.138Z,3.25
2022-11-09T19:36:34.681Z,3.40
2022-11-09T19:39:02.752Z,3.00
2022-11-09T19:41:31.969Z,2.60
2022-11-09T19:44:00.344Z,1.73
2022-11-09T19:46:30.421Z,2.10
2022-11-09T19:48:58.581Z,2.40
2022-11-09T19:51:29.262Z,1.27
2022-11-09T19:53:58.469Z,2.15
2022-11-09T19:56:28.552Z,2.13
2022-11-09T19:58:58.998Z,2.40
2022-11-09T20:01:27.257Z,1.67
2022-11-09T20:03:56.993Z,1.98
2022-11-09T20:06:25.656Z,2.38
2022-11-09T20:08:53.809Z,2.15
2022-11-09T20:11:41.097Z,2.97
2022-11-09T20:14:11.567Z,3.17
2022-11-09T20:16:40.588Z,3.28
2022-11-09T20:19:11.161Z,2.78
2022-11-09T20:21:40.177Z,2.85
2022-11-09T20:24:11.017Z,3.28
2022-11-09T20:26:39.089Z,3.13
2022-11-09T20:29:06.833Z,3.08
2022-11-09T20:31:37.108Z,4.30
2022-11-09T20:34:04.923Z,5.40
2022-11-09T20:36:33.033Z,7.97
2022-11-09T20:39:00.713Z,12.05
2022-11-09T20:41:29.471Z,12.68
2022-11-09T20:43:57.186Z,12.70
2022-11-09T20:46:25.689Z,15.32
2022-11-09T20:48:55.813Z,13.90
2022-11-09T20:51:25.188Z,13.15
2022-11-09T20:53:53.177Z,12.45
2022-11-09T20:56:21.594Z,11.15
2022-11-09T20:58:49.626Z,10.00
2022-11-09T21:01:19.353Z,8.77
2022-11-09T21:03:47.905Z,11.40
2022-11-09T21:06:17.072Z,11.98
2022-11-09T21:08:46.133Z,13.98
2022-11-09T21:11:14.369Z,18.70
2022-11-09T21:13:43.913Z,19.20
2022-11-09T21:16:13.632Z,20.15
2022-11-09T21:18:41.824Z,19.95
2022-11-09T21:21:11.299Z,18.50
2022-11-09T21:23:58.759Z,19.05
2022-11-09T21:26:44.559Z,14.38
2022-11-09T21:29:32.818Z,14.52
2022-11-09T21:32:01.014Z,13.57
2022-11-09T21:34:34.030Z,13.95
2022-11-09T21:37:04.443Z,11.40
2022-11-09T21:39:33.733Z,12.60
2022-11-09T21:42:01.925Z,7.68
2022-11-09T21:44:31.046Z,8.52
2022-11-09T21:46:59.187Z,7.53
2022-11-09T21:49:26.901Z,7.45
2022-11-09T21:51:55.101Z,6.13
2022-11-09T21:54:23.744Z,5.90
2022-11-09T21:56:53.618Z,4.03
2022-11-09T21:59:21.443Z,3.97
2022-11-09T22:01:49.274Z,3.45
2022-11-09T22:04:17.223Z,3.92
2022-11-09T22:06:45.060Z,3.85
2022-11-09T22:09:16.601Z,4.22
2022-11-09T22:12:02.147Z,5.22
2022-11-09T22:14:48.831Z,4.35
2022-11-09T22:17:16.903Z,4.88
2022-11-09T22:20:01.955Z,4.28
2022-11-09T22:22:31.225Z,3.47
2022-11-09T22:24:58.986Z,4.07
2022-11-09T22:27:26.875Z,4.57
2022-11-09T22:29:56.000Z,3.85
2022-11-09T22:32:23.702Z,3.47
2022-11-09T22:34:51.565Z,2.92
2022-11-09T22:37:19.404Z,3.92
2022-11-09T22:39:47.772Z,3.13
2022-11-09T22:42:15.769Z,2.80
2022-11-09T22:44:43.567Z,2.97
2022-11-09T22:47:13.317Z,3.22
2022-11-09T22:49:40.996Z,2.65
2022-11-09T22:52:09.441Z,2.22
2022-11-09T22:54:37.134Z,2.00
2022-11-09T22:57:05.160Z,2.75
2022-11-09T22:59:32.880Z,2.40
2022-11-09T23:02:00.642Z,2.42
2022-11-09T23:04:29.826Z,2.25
2022-11-09T23:06:57.659Z,2.20
2022-11-09T23:09:25.389Z,3.40
2022-11-09T23:11:53.083Z,2.35
2022-11-09T23:14:40.929Z,1.70
2022-11-09T23:17:28.620Z,2.03
2022-11-09T23:19:56.753Z,1.55
2022-11-09T23:22:24.460Z,1.77
2022-11-09T23:25:09.459Z,2.90
2022-11-09T23:27:37.216Z,2.45
2022-11-09T23:30:05.905Z,1.73
2022-11-09T23:32:33.676Z,2.10
2022-11-09T23:35:02.696Z,2.17
2022-11-09T23:37:30.636Z,1.90
2022-11-09T23:39:58.332Z,1.65
2022-11-09T23:42:26.140Z,1.70
2022-11-09T23:44:53.824Z,1.92
2022-11-09T23:47:21.566Z,2.33
2022-11-09T23:49:49.349Z,1.38
2022-11-09T23:52:18.561Z,2.50
2022-11-09T23:54:46.590Z,2.22
2022-11-09T23:57:14.564Z,1.77
2022-11-09T23:59:42.299Z,1.83
